sensor_id;sensor_type;location;lat;lon;timestamp;P1;durP1;ratioP1;P2;durP2;ratioP2
61673;SDS011;47573;43.832;5.974;2022-10-16T00:03:12;567.92;;;418.27;;
61673;SDS011;47573;43.832;5.974;2022-10-16T00:08:12;555.38;;;407.17;;
61673;SDS011;47573;43.832;5.974;2022-10-16T00:13:13;552.88;;;402.88;;
61673;SDS011;47573;43.832;5.974;2022-10-16T00:18:14;555.90;;;403.48;;
61673;SDS011;47573;43.832;5.974;2022-10-16T00:23:15;553.42;;;407.92;;
61673;SDS011;47573;43.832;5.974;2022-10-16T00:28:15;547.85;;;400.10;;
61673;SDS011;47573;43.832;5.974;2022-10-16T00:33:18;558.13;;;398.50;;
61673;SDS011;47573;43.832;5.974;2022-10-16T00:38:19;543.60;;;389.35;;
61673;SDS011;47573;43.832;5.974;2022-10-16T00:43:33;541.65;;;393.20;;
61673;SDS011;47573;43.832;5.974;2022-10-16T00:48:36;537.47;;;385.63;;
61673;SDS011;47573;43.832;5.974;2022-10-16T00:53:37;536.78;;;385.50;;
61673;SDS011;47573;43.832;5.974;2022-10-16T00:58:38;539.33;;;390.10;;
61673;SDS011;47573;43.832;5.974;2022-10-16T01:03:40;528.60;;;378.38;;
61673;SDS011;47573;43.832;5.974;2022-10-16T01:08:44;527.45;;;372.55;;
61673;SDS011;47573;43.832;5.974;2022-10-16T01:13:50;525.25;;;374.60;;
61673;SDS011;47573;43.832;5.974;2022-10-16T01:18:57;516.85;;;370.30;;
61673;SDS011;47573;43.832;5.974;2022-10-16T01:24:06;512.03;;;358.65;;
61673;SDS011;47573;43.832;5.974;2022-10-16T01:29:14;512.63;;;358.80;;
61673;SDS011;47573;43.832;5.974;2022-10-16T01:34:20;510.13;;;358.27;;
61673;SDS011;47573;43.832;5.974;2022-10-16T01:39:24;503.73;;;353.05;;
61673;SDS011;47573;43.832;5.974;2022-10-16T01:44:32;498.27;;;347.50;;
61673;SDS011;47573;43.832;5.974;2022-10-16T01:49:34;499.23;;;345.97;;
61673;SDS011;47573;43.832;5.974;2022-10-16T01:54:39;490.38;;;340.02;;
61673;SDS011;47573;43.832;5.974;2022-10-16T01:59:44;488.08;;;335.80;;
61673;SDS011;47573;43.832;5.974;2022-10-16T02:04:47;484.20;;;330.67;;
61673;SDS011;47573;43.832;5.974;2022-10-16T02:09:53;486.65;;;330.15;;
61673;SDS011;47573;43.832;5.974;2022-10-16T02:14:55;478.02;;;326.02;;
61673;SDS011;47573;43.832;5.974;2022-10-16T02:19:56;473.65;;;323.77;;
61673;SDS011;47573;43.832;5.974;2022-10-16T02:25:00;475.77;;;320.65;;
61673;SDS011;47573;43.832;5.974;2022-10-16T02:30:07;465.58;;;316.27;;
61673;SDS011;47573;43.832;5.974;2022-10-16T02:35:12;466.48;;;313.33;;
61673;SDS011;47573;43.832;5.974;2022-10-16T02:40:14;461.17;;;307.77;;
61673;SDS011;47573;43.832;5.974;2022-10-16T02:45:17;452.90;;;308.98;;
61673;SDS011;47573;43.832;5.974;2022-10-16T02:50:18;452.98;;;306.35;;
61673;SDS011;47573;43.832;5.974;2022-10-16T02:55:18;443.48;;;300.58;;
61673;SDS011;47573;43.832;5.974;2022-10-16T03:00:20;436.17;;;300.80;;
61673;SDS011;47573;43.832;5.974;2022-10-16T03:05:21;430.10;;;294.17;;
61673;SDS011;47573;43.832;5.974;2022-10-16T03:10:21;429.50;;;292.63;;
61673;SDS011;47573;43.832;5.974;2022-10-16T03:15:23;423.80;;;290.25;;
61673;SDS011;47573;43.832;5.974;2022-10-16T03:20:24;422.90;;;286.02;;
61673;SDS011;47573;43.832;5.974;2022-10-16T03:25:24;412.77;;;280.67;;
61673;SDS011;47573;43.832;5.974;2022-10-16T03:30:26;415.25;;;278.92;;
61673;SDS011;47573;43.832;5.974;2022-10-16T03:35:26;408.85;;;275.02;;
61673;SDS011;47573;43.832;5.974;2022-10-16T03:40:27;398.73;;;269.85;;
61673;SDS011;47573;43.832;5.974;2022-10-16T03:45:29;395.50;;;267.50;;
61673;SDS011;47573;43.832;5.974;2022-10-16T03:50:29;396.67;;;264.00;;
61673;SDS011;47573;43.832;5.974;2022-10-16T03:55:30;401.23;;;273.95;;
61673;SDS011;47573;43.832;5.974;2022-10-16T04:00:32;422.42;;;287.20;;
61673;SDS011;47573;43.832;5.974;2022-10-16T04:05:32;421.65;;;284.40;;
61673;SDS011;47573;43.832;5.974;2022-10-16T04:10:33;421.95;;;285.13;;
61673;SDS011;47573;43.832;5.974;2022-10-16T04:15:35;431.40;;;291.55;;
61673;SDS011;47573;43.832;5.974;2022-10-16T04:20:35;442.75;;;297.83;;
61673;SDS011;47573;43.832;5.974;2022-10-16T04:25:36;441.85;;;303.00;;
61673;SDS011;47573;43.832;5.974;2022-10-16T04:30:38;428.52;;;289.48;;
61673;SDS011;47573;43.832;5.974;2022-10-16T04:35:39;433.20;;;293.27;;
61673;SDS011;47573;43.832;5.974;2022-10-16T04:40:40;434.75;;;293.27;;
61673;SDS011;47573;43.832;5.974;2022-10-16T04:45:43;420.00;;;289.10;;
61673;SDS011;47573;43.832;5.974;2022-10-16T04:50:43;412.13;;;278.17;;
61673;SDS011;47573;43.832;5.974;2022-10-16T04:55:44;419.80;;;282.58;;
61673;SDS011;47573;43.832;5.974;2022-10-16T05:00:46;402.55;;;279.02;;
61673;SDS011;47573;43.832;5.974;2022-10-16T05:05:46;396.50;;;268.40;;
61673;SDS011;47573;43.832;5.974;2022-10-16T05:10:47;399.65;;;272.15;;
61673;SDS011;47573;43.832;5.974;2022-10-16T05:15:48;390.83;;;266.08;;
61673;SDS011;47573;43.832;5.974;2022-10-16T05:20:49;385.45;;;260.08;;
61673;SDS011;47573;43.832;5.974;2022-10-16T05:25:53;374.58;;;257.60;;
61673;SDS011;47573;43.832;5.974;2022-10-16T05:30:55;376.30;;;251.38;;
61673;SDS011;47573;43.832;5.974;2022-10-16T05:35:56;365.08;;;247.98;;
61673;SDS011;47573;43.832;5.974;2022-10-16T05:40:57;368.27;;;249.77;;
61673;SDS011;47573;43.832;5.974;2022-10-16T05:45:59;365.42;;;247.70;;
61673;SDS011;47573;43.832;5.974;2022-10-16T05:51:03;358.15;;;238.85;;
61673;SDS011;47573;43.832;5.974;2022-10-16T05:56:06;354.58;;;238.38;;
61673;SDS011;47573;43.832;5.974;2022-10-16T06:01:11;348.40;;;232.63;;
61673;SDS011;47573;43.832;5.974;2022-10-16T06:06:13;339.17;;;231.77;;
61673;SDS011;47573;43.832;5.974;2022-10-16T06:11:16;336.42;;;224.80;;
61673;SDS011;47573;43.832;5.974;2022-10-16T06:16:20;334.73;;;225.32;;
61673;SDS011;47573;43.832;5.974;2022-10-16T06:21:21;334.10;;;221.55;;
61673;SDS011;47573;43.832;5.974;2022-10-16T06:26:23;323.92;;;218.18;;
61673;SDS011;47573;43.832;5.974;2022-10-16T06:31:27;327.77;;;217.60;;
61673;SDS011;47573;43.832;5.974;2022-10-16T06:36:28;322.52;;;212.30;;
61673;SDS011;47573;43.832;5.974;2022-10-16T06:41:28;319.65;;;211.90;;
61673;SDS011;47573;43.832;5.974;2022-10-16T06:46:30;310.75;;;207.77;;
61673;SDS011;47573;43.832;5.974;2022-10-16T06:51:31;313.95;;;208.23;;
61673;SDS011;47573;43.832;5.974;2022-10-16T06:56:32;302.67;;;199.77;;
61673;SDS011;47573;43.832;5.974;2022-10-16T07:01:34;295.70;;;195.27;;
61673;SDS011;47573;43.832;5.974;2022-10-16T07:06:34;299.20;;;196.32;;
61673;SDS011;47573;43.832;5.974;2022-10-16T07:11:36;292.30;;;193.75;;
61673;SDS011;47573;43.832;5.974;2022-10-16T07:16:38;291.55;;;190.57;;
61673;SDS011;47573;43.832;5.974;2022-10-16T07:21:39;281.80;;;186.45;;
61673;SDS011;47573;43.832;5.974;2022-10-16T07:26:39;278.58;;;181.45;;
61673;SDS011;47573;43.832;5.974;2022-10-16T07:31:42;275.42;;;177.73;;
61673;SDS011;47573;43.832;5.974;2022-10-16T07:36:43;271.67;;;178.02;;
61673;SDS011;47573;43.832;5.974;2022-10-16T07:41:43;275.15;;;178.38;;
61673;SDS011;47573;43.832;5.974;2022-10-16T07:46:45;275.88;;;173.63;;
61673;SDS011;47573;43.832;5.974;2022-10-16T07:51:46;255.95;;;160.95;;
61673;SDS011;47573;43.832;5.974;2022-10-16T07:56:46;264.20;;;164.70;;
61673;SDS011;47573;43.832;5.974;2022-10-16T08:01:49;265.33;;;164.43;;
61673;SDS011;47573;43.832;5.974;2022-10-16T08:06:50;260.40;;;164.32;;
61673;SDS011;47573;43.832;5.974;2022-10-16T08:11:50;252.05;;;158.00;;
61673;SDS011;47573;43.832;5.974;2022-10-16T08:16:52;252.20;;;156.60;;
61673;SDS011;47573;43.832;5.974;2022-10-16T08:21:52;243.98;;;154.57;;
61673;SDS011;47573;43.832;5.974;2022-10-16T08:26:53;245.90;;;152.38;;
61673;SDS011;47573;43.832;5.974;2022-10-16T08:31:55;217.18;;;138.35;;
61673;SDS011;47573;43.832;5.974;2022-10-16T08:36:55;202.88;;;128.25;;
61673;SDS011;47573;43.832;5.974;2022-10-16T08:42:00;168.95;;;108.88;;
61673;SDS011;47573;43.832;5.974;2022-10-16T08:47:12;130.27;;;83.32;;
61673;SDS011;47573;43.832;5.974;2022-10-16T08:52:17;127.45;;;73.47;;
61673;SDS011;47573;43.832;5.974;2022-10-16T08:57:19;167.13;;;78.60;;
61673;SDS011;47573;43.832;5.974;2022-10-16T09:02:26;1069.18;;;522.38;;
61673;SDS011;47573;43.832;5.974;2022-10-16T09:07:32;147.73;;;92.38;;
61673;SDS011;47573;43.832;5.974;2022-10-16T09:12:44;1029.32;;;472.40;;
61673;SDS011;47573;43.832;5.974;2022-10-16T09:17:55;151.65;;;94.03;;
61673;SDS011;47573;43.832;5.974;2022-10-16T09:23:07;150.68;;;92.25;;
61673;SDS011;47573;43.832;5.974;2022-10-16T09:28:13;335.30;;;146.35;;
61673;SDS011;47573;43.832;5.974;2022-10-16T09:33:15;180.60;;;96.40;;
61673;SDS011;47573;43.832;5.974;2022-10-16T09:38:22;187.35;;;91.55;;
61673;SDS011;47573;43.832;5.974;2022-10-16T09:43:25;800.42;;;362.90;;
61673;SDS011;47573;43.832;5.974;2022-10-16T09:48:33;726.60;;;324.83;;
61673;SDS011;47573;43.832;5.974;2022-10-16T09:53:38;274.85;;;126.03;;
61673;SDS011;47573;43.832;5.974;2022-10-16T09:58:43;267.17;;;121.63;;
61673;SDS011;47573;43.832;5.974;2022-10-16T10:03:55;160.15;;;84.30;;
61673;SDS011;47573;43.832;5.974;2022-10-16T10:08:58;91.03;;;56.03;;
61673;SDS011;47573;43.832;5.974;2022-10-16T10:19:09;86.87;;;53.90;;
61673;SDS011;47573;43.832;5.974;2022-10-16T10:24:14;77.57;;;50.85;;
61673;SDS011;47573;43.832;5.974;2022-10-16T10:29:18;80.50;;;51.40;;
61673;SDS011;47573;43.832;5.974;2022-10-16T10:34:31;75.00;;;49.75;;
61673;SDS011;47573;43.832;5.974;2022-10-16T10:39:42;78.55;;;50.88;;
61673;SDS011;47573;43.832;5.974;2022-10-16T10:50:20;70.78;;;46.20;;
61673;SDS011;47573;43.832;5.974;2022-10-16T10:55:26;67.28;;;41.90;;
61673;SDS011;47573;43.832;5.974;2022-10-16T11:00:35;36.05;;;24.10;;
61673;SDS011;47573;43.832;5.974;2022-10-16T11:05:46;53.83;;;32.33;;
61673;SDS011;47573;43.832;5.974;2022-10-16T11:10:51;40.15;;;26.73;;
61673;SDS011;47573;43.832;5.974;2022-10-16T11:15:57;38.95;;;25.65;;
61673;SDS011;47573;43.832;5.974;2022-10-16T11:21:03;38.33;;;26.73;;
61673;SDS011;47573;43.832;5.974;2022-10-16T11:26:09;40.50;;;27.77;;
61673;SDS011;47573;43.832;5.974;2022-10-16T11:31:16;38.63;;;27.00;;
61673;SDS011;47573;43.832;5.974;2022-10-16T11:36:25;43.53;;;26.27;;
61673;SDS011;47573;43.832;5.974;2022-10-16T11:41:34;60.10;;;36.75;;
61673;SDS011;47573;43.832;5.974;2022-10-16T11:46:38;148.70;;;77.18;;
61673;SDS011;47573;43.832;5.974;2022-10-16T11:51:48;165.23;;;85.88;;
61673;SDS011;47573;43.832;5.974;2022-10-16T11:56:57;210.68;;;110.07;;
61673;SDS011;47573;43.832;5.974;2022-10-16T12:02:08;207.35;;;108.45;;
61673;SDS011;47573;43.832;5.974;2022-10-16T12:07:31;202.85;;;104.60;;
61673;SDS011;47573;43.832;5.974;2022-10-16T12:12:37;198.77;;;103.65;;
61673;SDS011;47573;43.832;5.974;2022-10-16T12:17:39;198.23;;;103.45;;
61673;SDS011;47573;43.832;5.974;2022-10-16T12:22:41;192.57;;;99.38;;
61673;SDS011;47573;43.832;5.974;2022-10-16T12:33:19;184.00;;;95.05;;
61673;SDS011;47573;43.832;5.974;2022-10-16T12:38:26;185.90;;;96.05;;
61673;SDS011;47573;43.832;5.974;2022-10-16T12:43:35;182.32;;;93.40;;
61673;SDS011;47573;43.832;5.974;2022-10-16T12:48:38;182.18;;;93.97;;
61673;SDS011;47573;43.832;5.974;2022-10-16T12:53:41;173.55;;;93.50;;
61673;SDS011;47573;43.832;5.974;2022-10-16T12:58:45;169.07;;;90.63;;
61673;SDS011;47573;43.832;5.974;2022-10-16T13:04:05;168.63;;;88.35;;
61673;SDS011;47573;43.832;5.974;2022-10-16T13:09:32;161.93;;;85.80;;
61673;SDS011;47573;43.832;5.974;2022-10-16T13:20:18;153.75;;;81.55;;
61673;SDS011;47573;43.832;5.974;2022-10-16T13:25:27;151.27;;;82.03;;
61673;SDS011;47573;43.832;5.974;2022-10-16T13:30:36;153.75;;;79.90;;
61673;SDS011;47573;43.832;5.974;2022-10-16T13:35:46;147.15;;;78.32;;
61673;SDS011;47573;43.832;5.974;2022-10-16T13:40:52;150.27;;;79.50;;
61673;SDS011;47573;43.832;5.974;2022-10-16T13:45:58;144.68;;;78.10;;
61673;SDS011;47573;43.832;5.974;2022-10-16T13:51:04;142.95;;;75.80;;
61673;SDS011;47573;43.832;5.974;2022-10-16T13:56:13;141.70;;;74.72;;
61673;SDS011;47573;43.832;5.974;2022-10-16T14:01:16;163.63;;;79.03;;
61673;SDS011;47573;43.832;5.974;2022-10-16T14:06:19;145.17;;;75.33;;
61673;SDS011;47573;43.832;5.974;2022-10-16T14:11:23;136.02;;;70.55;;
61673;SDS011;47573;43.832;5.974;2022-10-16T14:16:25;135.75;;;71.88;;
61673;SDS011;47573;43.832;5.974;2022-10-16T14:21:28;127.03;;;69.40;;
61673;SDS011;47573;43.832;5.974;2022-10-16T14:26:30;127.63;;;70.28;;
61673;SDS011;47573;43.832;5.974;2022-10-16T14:31:41;136.65;;;71.40;;
61673;SDS011;47573;43.832;5.974;2022-10-16T14:36:42;125.97;;;68.57;;
61673;SDS011;47573;43.832;5.974;2022-10-16T14:41:45;124.25;;;68.00;;
61673;SDS011;47573;43.832;5.974;2022-10-16T14:46:46;126.03;;;67.65;;
61673;SDS011;47573;43.832;5.974;2022-10-16T14:51:47;120.88;;;63.33;;
61673;SDS011;47573;43.832;5.974;2022-10-16T14:56:50;117.07;;;64.72;;
61673;SDS011;47573;43.832;5.974;2022-10-16T15:06:53;111.78;;;61.30;;
61673;SDS011;47573;43.832;5.974;2022-10-16T15:11:55;119.70;;;64.03;;
61673;SDS011;47573;43.832;5.974;2022-10-16T15:16:55;110.57;;;60.40;;
61673;SDS011;47573;43.832;5.974;2022-10-16T15:21:56;121.20;;;67.72;;
61673;SDS011;47573;43.832;5.974;2022-10-16T15:26:58;123.63;;;71.55;;
61673;SDS011;47573;43.832;5.974;2022-10-16T15:31:59;128.05;;;71.97;;
61673;SDS011;47573;43.832;5.974;2022-10-16T15:37:02;125.10;;;70.15;;
61673;SDS011;47573;43.832;5.974;2022-10-16T15:42:04;119.78;;;67.80;;
61673;SDS011;47573;43.832;5.974;2022-10-16T15:47:04;114.72;;;65.78;;
61673;SDS011;47573;43.832;5.974;2022-10-16T15:52:05;111.78;;;65.40;;
61673;SDS011;47573;43.832;5.974;2022-10-16T15:57:07;111.30;;;64.93;;
61673;SDS011;47573;43.832;5.974;2022-10-16T16:02:07;114.55;;;63.80;;
61673;SDS011;47573;43.832;5.974;2022-10-16T16:07:08;108.47;;;60.92;;
61673;SDS011;47573;43.832;5.974;2022-10-16T16:12:10;109.47;;;62.88;;
61673;SDS011;47573;43.832;5.974;2022-10-16T16:17:11;106.95;;;61.30;;
61673;SDS011;47573;43.832;5.974;2022-10-16T16:22:11;105.60;;;60.60;;
61673;SDS011;47573;43.832;5.974;2022-10-16T16:27:13;101.85;;;58.78;;
61673;SDS011;47573;43.832;5.974;2022-10-16T16:32:14;105.13;;;58.83;;
61673;SDS011;47573;43.832;5.974;2022-10-16T16:37:15;104.35;;;60.00;;
61673;SDS011;47573;43.832;5.974;2022-10-16T16:42:16;107.28;;;59.80;;
61673;SDS011;47573;43.832;5.974;2022-10-16T16:47:17;110.57;;;62.28;;
61673;SDS011;47573;43.832;5.974;2022-10-16T16:52:18;124.10;;;71.72;;
61673;SDS011;47573;43.832;5.974;2022-10-16T16:57:20;134.27;;;81.00;;
61673;SDS011;47573;43.832;5.974;2022-10-16T17:02:21;1149.43;;;581.63;;
61673;SDS011;47573;43.832;5.974;2022-10-16T17:07:21;182.80;;;109.93;;
61673;SDS011;47573;43.832;5.974;2022-10-16T17:12:23;761.78;;;386.80;;
61673;SDS011;47573;43.832;5.974;2022-10-16T17:17:23;525.13;;;261.50;;
61673;SDS011;47573;43.832;5.974;2022-10-16T17:22:24;313.23;;;159.45;;
61673;SDS011;47573;43.832;5.974;2022-10-16T17:27:26;251.40;;;156.93;;
61673;SDS011;47573;43.832;5.974;2022-10-16T17:32:26;255.52;;;160.32;;
61673;SDS011;47573;43.832;5.974;2022-10-16T17:37:27;266.10;;;170.10;;
61673;SDS011;47573;43.832;5.974;2022-10-16T17:42:29;279.98;;;180.30;;
61673;SDS011;47573;43.832;5.974;2022-10-16T17:47:29;292.05;;;186.48;;
61673;SDS011;47573;43.832;5.974;2022-10-16T17:52:29;310.40;;;206.93;;
61673;SDS011;47573;43.832;5.974;2022-10-16T17:57:31;332.02;;;226.23;;
61673;SDS011;47573;43.832;5.974;2022-10-16T18:02:32;349.17;;;237.63;;
61673;SDS011;47573;43.832;5.974;2022-10-16T18:07:32;355.70;;;240.02;;
61673;SDS011;47573;43.832;5.974;2022-10-16T18:12:34;392.02;;;268.38;;
61673;SDS011;47573;43.832;5.974;2022-10-16T18:17:35;399.15;;;267.90;;
61673;SDS011;47573;43.832;5.974;2022-10-16T18:22:35;402.30;;;274.00;;
61673;SDS011;47573;43.832;5.974;2022-10-16T18:27:37;390.35;;;257.92;;
61673;SDS011;47573;43.832;5.974;2022-10-16T18:32:38;377.50;;;251.77;;
61673;SDS011;47573;43.832;5.974;2022-10-16T18:37:38;723.30;;;432.70;;
61673;SDS011;47573;43.832;5.974;2022-10-16T18:42:40;426.63;;;288.35;;
61673;SDS011;47573;43.832;5.974;2022-10-16T18:47:40;423.35;;;287.30;;
61673;SDS011;47573;43.832;5.974;2022-10-16T18:52:45;380.38;;;251.40;;
61673;SDS011;47573;43.832;5.974;2022-10-16T18:57:48;447.77;;;276.13;;
61673;SDS011;47573;43.832;5.974;2022-10-16T19:02:48;454.77;;;300.05;;
61673;SDS011;47573;43.832;5.974;2022-10-16T19:07:49;615.55;;;369.85;;
61673;SDS011;47573;43.832;5.974;2022-10-16T19:12:50;543.05;;;346.52;;
61673;SDS011;47573;43.832;5.974;2022-10-16T19:17:51;418.10;;;283.75;;
61673;SDS011;47573;43.832;5.974;2022-10-16T19:22:51;437.38;;;303.60;;
61673;SDS011;47573;43.832;5.974;2022-10-16T19:27:53;456.00;;;315.98;;
61673;SDS011;47573;43.832;5.974;2022-10-16T19:32:54;455.35;;;316.88;;
61673;SDS011;47573;43.832;5.974;2022-10-16T19:37:54;483.80;;;340.15;;
61673;SDS011;47573;43.832;5.974;2022-10-16T19:42:56;487.15;;;344.40;;
61673;SDS011;47573;43.832;5.974;2022-10-16T19:47:56;1572.68;;;739.35;;
61673;SDS011;47573;43.832;5.974;2022-10-16T19:52:57;515.35;;;356.15;;
61673;SDS011;47573;43.832;5.974;2022-10-16T19:57:59;496.73;;;352.23;;
61673;SDS011;47573;43.832;5.974;2022-10-16T20:02:59;498.08;;;356.15;;
61673;SDS011;47573;43.832;5.974;2022-10-16T20:08:00;502.58;;;355.65;;
61673;SDS011;47573;43.832;5.974;2022-10-16T20:13:01;505.25;;;364.70;;
61673;SDS011;47573;43.832;5.974;2022-10-16T20:18:02;491.70;;;349.38;;
61673;SDS011;47573;43.832;5.974;2022-10-16T20:23:03;485.17;;;344.80;;
61673;SDS011;47573;43.832;5.974;2022-10-16T20:28:05;487.25;;;347.13;;
61673;SDS011;47573;43.832;5.974;2022-10-16T20:33:06;486.20;;;344.60;;
61673;SDS011;47573;43.832;5.974;2022-10-16T20:38:07;482.23;;;343.63;;
61673;SDS011;47573;43.832;5.974;2022-10-16T20:43:11;470.67;;;336.35;;
61673;SDS011;47573;43.832;5.974;2022-10-16T20:48:13;466.35;;;323.25;;
61673;SDS011;47573;43.832;5.974;2022-10-16T20:53:13;482.45;;;336.05;;
61673;SDS011;47573;43.832;5.974;2022-10-16T20:58:15;473.52;;;336.73;;
61673;SDS011;47573;43.832;5.974;2022-10-16T21:03:15;452.48;;;318.88;;
61673;SDS011;47573;43.832;5.974;2022-10-16T21:08:16;449.75;;;315.10;;
61673;SDS011;47573;43.832;5.974;2022-10-16T21:13:18;447.15;;;312.95;;
61673;SDS011;47573;43.832;5.974;2022-10-16T21:18:18;436.50;;;305.35;;
61673;SDS011;47573;43.832;5.974;2022-10-16T21:23:19;429.23;;;301.90;;
61673;SDS011;47573;43.832;5.974;2022-10-16T21:28:21;433.20;;;305.55;;
61673;SDS011;47573;43.832;5.974;2022-10-16T21:33:22;422.83;;;298.13;;
61673;SDS011;47573;43.832;5.974;2022-10-16T21:38:23;413.10;;;293.60;;
61673;SDS011;47573;43.832;5.974;2022-10-16T21:43:25;417.27;;;290.85;;
61673;SDS011;47573;43.832;5.974;2022-10-16T21:48:26;419.38;;;290.63;;
61673;SDS011;47573;43.832;5.974;2022-10-16T21:53:26;418.48;;;293.60;;
61673;SDS011;47573;43.832;5.974;2022-10-16T21:58:29;412.10;;;286.20;;
61673;SDS011;47573;43.832;5.974;2022-10-16T22:03:30;392.25;;;277.25;;
61673;SDS011;47573;43.832;5.974;2022-10-16T22:08:30;410.55;;;288.02;;
61673;SDS011;47573;43.832;5.974;2022-10-16T22:13:32;420.98;;;294.80;;
61673;SDS011;47573;43.832;5.974;2022-10-16T22:18:33;443.17;;;309.48;;
61673;SDS011;47573;43.832;5.974;2022-10-16T22:23:34;448.65;;;315.63;;
61673;SDS011;47573;43.832;5.974;2022-10-16T22:28:37;474.17;;;335.95;;
61673;SDS011;47573;43.832;5.974;2022-10-16T22:33:38;474.73;;;338.25;;
61673;SDS011;47573;43.832;5.974;2022-10-16T22:38:40;474.15;;;330.90;;
61673;SDS011;47573;43.832;5.974;2022-10-16T22:43:43;468.65;;;338.08;;
61673;SDS011;47573;43.832;5.974;2022-10-16T22:48:44;466.75;;;332.90;;
61673;SDS011;47573;43.832;5.974;2022-10-16T22:53:45;462.52;;;330.40;;
61673;SDS011;47573;43.832;5.974;2022-10-16T22:58:48;462.00;;;325.40;;
61673;SDS011;47573;43.832;5.974;2022-10-16T23:03:48;465.30;;;328.23;;
61673;SDS011;47573;43.832;5.974;2022-10-16T23:08:49;479.70;;;339.98;;
61673;SDS011;47573;43.832;5.974;2022-10-16T23:13:52;487.35;;;349.15;;
61673;SDS011;47573;43.832;5.974;2022-10-16T23:18:52;479.05;;;343.38;;
61673;SDS011;47573;43.832;5.974;2022-10-16T23:23:53;472.52;;;336.73;;
61673;SDS011;47573;43.832;5.974;2022-10-16T23:28:55;498.70;;;362.00;;
61673;SDS011;47573;43.832;5.974;2022-10-16T23:33:57;501.23;;;360.88;;
61673;SDS011;47573;43.832;5.974;2022-10-16T23:38:58;497.08;;;362.35;;
61673;SDS011;47573;43.832;5.974;2022-10-16T23:44:00;499.25;;;365.02;;
61673;SDS011;47573;43.832;5.974;2022-10-16T23:49:00;492.70;;;359.10;;
61673;SDS011;47573;43.832;5.974;2022-10-16T23:54:01;493.35;;;358.60;;
61673;SDS011;47573;43.832;5.974;2022-10-16T23:59:03;492.63;;;358.27;;
